Time;durP1;ratioP1;P1;durP2;ratioP2;P2;SDS_P1;SDS_P2;PMS_P1;PMS_P2;Temp;Humidity;BMP_temperature;BMP_pressure;BME280_temperature;BME280_humidity;BME280_pressure;Samples;Min_cycle;Max_cycle;Signal;HPM_P1;HPM_P2
2022/08/07 00:00:38;;;;;;;3.53;1.95;;;19.10;55.10;;;;;;5013656;28;20042;-67
2022/08/07 00:03:04;;;;;;;5.75;2.13;;;19.10;55.10;;;;;;5023355;28;20409;-68
2022/08/07 00:05:30;;;;;;;6.10;2.25;;;19.10;55.30;;;;;;5021182;28;20477;-67
2022/08/07 00:07:55;;;;;;;6.22;2.75;;;19.10;55.30;;;;;;5016308;28;20412;-67
2022/08/07 00:10:22;;;;;;;5.22;2.10;;;19.00;55.30;;;;;;5014956;28;20095;-67
2022/08/07 00:12:48;;;;;;;5.00;2.38;;;19.00;55.30;;;;;;5012501;28;20340;-67
2022/08/07 00:15:14;;;;;;;5.65;2.92;;;19.00;55.40;;;;;;5021447;28;20036;-67
2022/08/07 00:17:40;;;;;;;5.22;2.42;;;19.00;55.40;;;;;;5018875;28;20030;-67
2022/08/07 00:20:06;;;;;;;5.03;2.20;;;19.00;55.50;;;;;;5015344;28;20040;-67
2022/08/07 00:22:32;;;;;;;5.43;2.58;;;18.90;55.50;;;;;;5016065;28;20022;-67
2022/08/07 00:24:57;;;;;;;4.93;2.08;;;18.90;55.50;;;;;;5012785;28;20423;-67
2022/08/07 00:27:23;;;;;;;5.32;2.30;;;18.90;55.50;;;;;;5027097;28;20462;-67
2022/08/07 00:29:48;;;;;;;4.65;2.13;;;18.90;55.50;;;;;;5020686;28;20111;-67
2022/08/07 00:32:14;;;;;;;6.03;2.83;;;18.90;55.60;;;;;;5014242;28;20026;-67
2022/08/07 00:34:41;;;;;;;6.43;2.55;;;18.80;55.60;;;;;;5019606;28;20167;-67
2022/08/07 00:37:07;;;;;;;6.18;2.70;;;18.80;55.70;;;;;;5030217;28;20033;-67
2022/08/07 00:39:34;;;;;;;7.57;2.63;;;18.80;55.70;;;;;;5017330;28;20103;-67
2022/08/07 00:42:00;;;;;;;6.28;2.83;;;18.80;55.80;;;;;;5018084;28;20038;-67
2022/08/07 00:44:26;;;;;;;7.35;3.15;;;18.80;55.80;;;;;;5010893;28;20515;-67
2022/08/07 00:46:51;;;;;;;6.82;2.50;;;18.70;55.90;;;;;;5013664;28;20156;-67
2022/08/07 00:49:17;;;;;;;6.07;2.90;;;18.70;56.00;;;;;;5011070;28;20265;-67
2022/08/07 00:51:43;;;;;;;5.90;2.42;;;18.70;56.10;;;;;;5016041;28;20180;-67
2022/08/07 00:54:09;;;;;;;5.25;2.67;;;18.60;56.10;;;;;;4996419;28;20025;-67
2022/08/07 00:56:35;;;;;;;6.82;2.67;;;18.60;56.20;;;;;;5006789;28;20051;-67
2022/08/07 00:59:02;;;;;;;6.30;2.75;;;18.60;56.20;;;;;;5026686;28;20033;-67
2022/08/07 01:01:28;;;;;;;6.00;2.75;;;18.60;56.30;;;;;;5008154;28;20032;-67
2022/08/07 01:03:54;;;;;;;5.80;2.53;;;18.60;56.40;;;;;;5012705;28;20026;-67
2022/08/07 01:06:20;;;;;;;6.03;2.88;;;18.50;56.30;;;;;;5015320;28;20343;-67
2022/08/07 01:08:47;;;;;;;6.78;2.58;;;18.50;56.40;;;;;;5023918;28;20076;-67
2022/08/07 01:11:13;;;;;;;6.13;2.58;;;18.50;56.40;;;;;;5010235;28;20132;-67
2022/08/07 01:13:39;;;;;;;6.88;2.72;;;18.50;56.50;;;;;;4996548;28;20030;-67
2022/08/07 01:16:06;;;;;;;6.45;2.97;;;18.40;56.50;;;;;;5002887;28;20040;-67
2022/08/07 01:18:33;;;;;;;6.78;2.72;;;18.40;56.50;;;;;;5028964;28;20026;-67
2022/08/07 01:21:14;;;;;;;6.50;2.78;;;18.40;56.60;;;;;;5019184;28;20080;-68
2022/08/07 01:23:42;;;;;;;5.95;2.95;;;18.40;56.60;;;;;;5008197;28;20029;-67
2022/08/07 01:26:14;;;;;;;5.82;2.95;;;18.40;56.70;;;;;;4999822;28;20347;-67
2022/08/07 01:28:47;;;;;;;6.47;2.92;;;18.40;56.80;;;;;;5012166;28;20022;-67
2022/08/07 01:31:16;;;;;;;6.40;3.10;;;18.40;56.80;;;;;;4996186;28;20344;-67
2022/08/07 01:33:45;;;;;;;6.40;3.00;;;18.30;56.80;;;;;;5018976;28;20116;-67
2022/08/07 01:36:11;;;;;;;6.00;3.10;;;18.30;56.90;;;;;;5021065;28;20350;-67
2022/08/07 01:38:40;;;;;;;7.40;3.25;;;18.30;57.00;;;;;;5017690;28;20080;-67
2022/08/07 01:41:17;;;;;;;7.07;3.05;;;18.30;57.10;;;;;;5027843;28;20033;-67
2022/08/07 01:43:43;;;;;;;7.90;3.53;;;18.20;57.10;;;;;;5017848;28;20025;-67
2022/08/07 01:46:09;;;;;;;6.13;2.80;;;18.20;57.10;;;;;;5027397;28;20538;-66
2022/08/07 01:48:46;;;;;;;6.40;3.13;;;18.20;57.20;;;;;;5025517;28;20431;-67
2022/08/07 01:51:19;;;;;;;7.50;3.00;;;18.20;57.30;;;;;;5022761;28;20418;-67
2022/08/07 01:53:48;;;;;;;7.00;3.00;;;18.10;57.40;;;;;;5005105;28;20316;-67
2022/08/07 01:56:25;;;;;;;9.90;3.75;;;18.10;57.40;;;;;;5005016;28;20036;-67
2022/08/07 01:59:04;;;;;;;6.25;3.17;;;18.10;57.50;;;;;;5006147;28;20121;-67
2022/08/07 02:01:34;;;;;;;6.35;3.05;;;18.10;57.60;;;;;;5015776;28;20029;-67
2022/08/07 02:04:26;;;;;;;7.03;3.63;;;18.00;57.60;;;;;;5018198;28;20041;-67
2022/08/07 02:06:56;;;;;;;6.47;3.30;;;18.00;57.70;;;;;;5027038;28;20073;-67
2022/08/07 02:09:25;;;;;;;6.97;3.30;;;18.00;57.70;;;;;;5016767;28;20022;-67
2022/08/07 02:11:51;;;;;;;6.38;3.15;;;18.00;57.70;;;;;;5015469;28;20337;-67
2022/08/07 02:14:19;;;;;;;6.20;3.13;;;18.00;57.70;;;;;;5011345;28;20444;-67
2022/08/07 02:16:48;;;;;;;7.72;4.00;;;18.00;58.40;;;;;;5005193;28;20113;-67
2022/08/07 02:19:16;;;;;;;7.40;3.78;;;18.00;57.80;;;;;;5013941;28;20132;-67
2022/08/07 02:21:44;;;;;;;7.78;3.33;;;17.90;57.80;;;;;;5023177;28;20025;-67
2022/08/07 02:24:12;;;;;;;7.30;3.53;;;17.90;57.90;;;;;;5019577;28;20036;-66
2022/08/07 02:26:39;;;;;;;7.20;3.58;;;17.90;58.00;;;;;;5012354;28;20080;-67
2022/08/07 02:29:07;;;;;;;6.80;3.45;;;17.90;58.00;;;;;;5023141;28;20018;-67
2022/08/07 02:31:34;;;;;;;8.10;3.55;;;17.90;58.10;;;;;;5024832;28;20022;-69
2022/08/07 02:34:02;;;;;;;6.30;3.22;;;17.80;58.20;;;;;;5020855;28;20052;-66
2022/08/07 02:36:30;;;;;;;7.70;4.20;;;17.80;58.20;;;;;;5032137;28;20075;-66
2022/08/07 02:38:57;;;;;;;7.43;4.18;;;17.80;58.30;;;;;;5026458;28;20037;-66
2022/08/07 02:41:26;;;;;;;8.35;3.60;;;17.80;58.40;;;;;;5020231;28;20023;-66
2022/08/07 02:43:53;;;;;;;7.03;3.55;;;17.70;58.40;;;;;;5016034;28;20359;-68
2022/08/07 02:46:23;;;;;;;7.30;4.25;;;17.70;58.60;;;;;;5020014;28;20037;-67
2022/08/07 02:48:49;;;;;;;7.00;3.58;;;17.70;58.60;;;;;;5028210;28;20026;-67
2022/08/07 02:51:18;;;;;;;6.72;3.63;;;17.60;58.60;;;;;;5015621;28;20428;-67
2022/08/07 02:53:52;;;;;;;7.22;3.92;;;17.60;58.70;;;;;;5013547;28;20025;-67
2022/08/07 02:56:21;;;;;;;6.90;3.70;;;17.60;58.80;;;;;;5026106;28;20034;-67
2022/08/07 02:58:50;;;;;;;8.43;3.88;;;17.60;58.80;;;;;;5023223;28;20022;-67
2022/08/07 03:01:18;;;;;;;6.82;4.20;;;17.60;58.90;;;;;;5013751;28;20340;-67
2022/08/07 03:03:46;;;;;;;8.48;4.22;;;17.60;59.00;;;;;;5017047;28;20057;-67
2022/08/07 03:06:14;;;;;;;8.70;4.38;;;17.50;59.00;;;;;;5025797;28;20036;-67
2022/08/07 03:08:41;;;;;;;8.35;4.70;;;17.50;59.10;;;;;;5021235;28;20022;-67
2022/08/07 03:11:07;;;;;;;7.75;4.00;;;17.50;59.10;;;;;;5014626;28;20038;-67
2022/08/07 03:13:38;;;;;;;;;;;17.50;59.20;;;;;;5018679;28;20128;-67
2022/08/07 03:16:05;;;;;;;7.22;3.88;;;17.50;59.70;;;;;;5022921;28;19909;-67
2022/08/07 03:18:31;;;;;;;7.78;4.20;;;17.50;59.20;;;;;;5013512;28;20125;-67
2022/08/07 03:20:57;;;;;;;8.10;4.10;;;17.50;59.20;;;;;;5011349;28;20124;-67
2022/08/07 03:23:26;;;;;;;9.75;4.32;;;17.50;59.20;;;;;;5016074;28;20053;-67
2022/08/07 03:25:53;;;;;;;8.25;3.90;;;17.40;59.20;;;;;;5014133;28;20026;-67
2022/08/07 03:28:19;;;;;;;7.18;4.05;;;17.40;59.20;;;;;;5014291;28;20084;-66
2022/08/07 03:30:46;;;;;;;7.40;3.97;;;17.40;59.20;;;;;;5020276;28;20378;-66
2022/08/07 03:33:13;;;;;;;7.85;4.50;;;17.40;59.20;;;;;;5019218;28;20029;-66
2022/08/07 03:35:40;;;;;;;7.90;4.22;;;17.40;59.30;;;;;;5020967;28;20029;-67
2022/08/07 03:38:07;;;;;;;7.25;4.07;;;17.40;59.40;;;;;;5016805;28;20357;-67
2022/08/07 03:40:33;;;;;;;7.68;4.22;;;17.40;59.40;;;;;;5013146;28;20025;-67
2022/08/07 03:43:00;;;;;;;7.75;4.15;;;17.40;59.40;;;;;;5016397;28;20026;-67
2022/08/07 03:45:28;;;;;;;7.90;4.30;;;17.40;59.50;;;;;;5002686;28;20018;-67
2022/08/07 03:47:58;;;;;;;7.72;4.15;;;17.30;59.50;;;;;;5031746;28;20052;-67
2022/08/07 03:50:25;;;;;;;7.75;4.70;;;17.30;59.60;;;;;;5014393;28;20517;-66
2022/08/07 03:52:57;;;;;;;7.65;4.25;;;17.30;59.70;;;;;;5030162;28;20405;-67
2022/08/07 03:55:23;;;;;;;8.10;4.50;;;17.30;59.80;;;;;;5020335;28;20034;-66
2022/08/07 03:57:50;;;;;;;9.80;4.60;;;17.20;59.80;;;;;;5008880;28;20065;-67
2022/08/07 04:00:17;;;;;;;8.77;4.63;;;17.20;59.90;;;;;;5008176;28;21318;-67
2022/08/07 04:02:45;;;;;;;8.77;4.60;;;17.20;60.00;;;;;;4991400;28;20367;-68
2022/08/07 04:05:20;;;;;;;7.47;3.97;;;17.20;60.10;;;;;;5010618;28;20090;-67
2022/08/07 04:07:47;;;;;;;8.85;4.53;;;17.20;60.30;;;;;;5013371;28;20366;-68
2022/08/07 04:10:17;;;;;;;8.13;4.57;;;17.10;60.20;;;;;;5008179;28;20101;-67
2022/08/07 04:12:43;;;;;;;9.90;4.95;;;17.10;60.40;;;;;;5005193;28;20045;-67
2022/08/07 04:15:11;;;;;;;8.30;4.88;;;17.10;60.40;;;;;;4992961;28;20030;-67
2022/08/07 04:17:38;;;;;;;8.30;4.78;;;17.10;60.50;;;;;;4990186;28;20438;-68
2022/08/07 04:20:07;;;;;;;8.00;4.63;;;17.00;60.50;;;;;;5012853;28;20025;-67
2022/08/07 04:22:35;;;;;;;7.35;4.30;;;17.00;60.60;;;;;;5014382;28;20037;-67
2022/08/07 04:25:04;;;;;;;7.90;4.40;;;17.00;60.60;;;;;;5012117;28;20029;-68
2022/08/07 04:27:30;;;;;;;8.25;4.57;;;17.00;60.70;;;;;;4995070;28;20021;-67
2022/08/07 04:29:58;;;;;;;7.97;4.68;;;17.00;60.70;;;;;;5008880;28;20514;-67
2022/08/07 04:32:26;;;;;;;8.95;4.65;;;17.00;60.80;;;;;;5012523;28;20018;-67
2022/08/07 04:34:54;;;;;;;8.65;4.85;;;17.00;60.90;;;;;;5026352;28;20025;-67
2022/08/07 04:37:20;;;;;;;8.43;4.68;;;17.00;61.00;;;;;;5020793;28;20022;-66
2022/08/07 04:39:46;;;;;;;7.65;4.53;;;17.00;61.10;;;;;;5015705;28;20029;-67
2022/08/07 04:42:12;;;;;;;7.90;4.57;;;17.00;61.20;;;;;;5017347;28;20347;-67
2022/08/07 04:44:38;;;;;;;9.50;5.53;;;16.90;61.20;;;;;;5020829;28;20129;-67
2022/08/07 04:47:10;;;;;;;8.48;5.00;;;16.90;61.20;;;;;;5030340;28;20083;-67
2022/08/07 04:50:04;;;;;;;8.20;4.68;;;17.00;61.30;;;;;;5033891;28;20121;-67
2022/08/07 04:52:54;;;;;;;9.07;5.13;;;17.00;61.20;;;;;;5033172;28;20032;-67
2022/08/07 04:55:33;;;;;;;10.98;5.07;;;17.00;61.20;;;;;;5024149;28;20034;-67
2022/08/07 04:58:29;;;;;;;8.57;5.05;;;17.10;61.80;;;;;;5005023;28;20183;-67
2022/08/07 05:01:02;;;;;;;11.07;5.40;;;17.10;61.90;;;;;;5025872;28;20452;-67
2022/08/07 05:03:35;;;;;;;11.20;5.47;;;17.10;61.10;;;;;;5033523;28;20030;-68
2022/08/07 05:06:09;;;;;;;8.82;5.18;;;17.10;61.10;;;;;;5019639;28;20026;-68
2022/08/07 05:08:59;;;;;;;9.30;5.32;;;17.20;61.20;;;;;;5031654;28;20025;-68
2022/08/07 05:11:34;;;;;;;8.98;5.07;;;17.10;61.10;;;;;;5022124;28;20049;-68
2022/08/07 05:14:08;;;;;;;9.23;5.07;;;17.20;61.30;;;;;;4994336;28;20033;-68
2022/08/07 05:16:38;;;;;;;8.95;5.40;;;17.20;61.30;;;;;;5005187;28;21077;-67
2022/08/07 05:19:12;;;;;;;10.38;5.25;;;17.20;61.20;;;;;;4999371;28;20117;-68
2022/08/07 05:21:43;;;;;;;8.38;4.93;;;17.20;61.20;;;;;;4992890;28;20031;-67
2022/08/07 05:24:12;;;;;;;9.40;5.57;;;17.30;61.30;;;;;;5016494;28;20089;-68
2022/08/07 05:26:39;;;;;;;10.73;6.00;;;17.30;61.30;;;;;;5009785;28;20030;-67
2022/08/07 05:29:09;;;;;;;9.13;5.57;;;17.40;61.30;;;;;;5028124;28;20021;-67
2022/08/07 05:31:40;;;;;;;10.15;5.68;;;17.40;61.20;;;;;;5020780;28;20355;-67
2022/08/07 05:34:14;;;;;;;9.68;5.70;;;17.50;61.20;;;;;;5021317;28;20405;-67
2022/08/07 05:36:52;;;;;;;9.68;6.28;;;17.50;61.10;;;;;;5028971;28;20026;-67
2022/08/07 05:39:25;;;;;;;10.45;5.25;;;17.60;61.00;;;;;;5019199;28;20033;-68
2022/08/07 05:41:55;;;;;;;10.13;5.85;;;17.70;60.90;;;;;;5017011;28;20021;-68
2022/08/07 05:44:21;;;;;;;10.65;6.35;;;17.70;60.70;;;;;;5024994;28;20104;-68
2022/08/07 05:46:49;;;;;;;9.32;5.68;;;17.80;60.50;;;;;;5011222;28;20104;-68
2022/08/07 05:49:18;;;;;;;10.20;6.18;;;18.00;60.40;;;;;;5011718;28;20022;-68
2022/08/07 05:51:46;;;;;;;9.70;6.18;;;18.10;60.20;;;;;;5012821;28;20466;-68
2022/08/07 05:54:12;;;;;;;9.05;5.72;;;18.20;60.10;;;;;;4996349;28;20371;-68
2022/08/07 05:56:40;;;;;;;9.93;5.70;;;18.20;60.00;;;;;;5015581;28;20064;-68
2022/08/07 05:59:14;;;;;;;10.13;5.68;;;18.30;59.80;;;;;;4998947;28;20022;-68
2022/08/07 06:01:42;;;;;;;11.55;5.55;;;18.40;59.60;;;;;;5014315;28;20395;-68
2022/08/07 06:04:08;;;;;;;9.45;5.53;;;18.50;59.50;;;;;;5015219;28;20014;-67
2022/08/07 06:06:38;;;;;;;10.10;5.90;;;18.50;59.40;;;;;;5012794;28;20022;-68
2022/08/07 06:09:05;;;;;;;10.15;5.57;;;18.60;59.30;;;;;;5000092;28;20477;-68
2022/08/07 06:11:36;;;;;;;9.10;5.50;;;18.70;59.20;;;;;;5000206;28;20100;-68
2022/08/07 06:14:03;;;;;;;8.75;5.47;;;18.80;59.00;;;;;;5016800;28;20025;-68
2022/08/07 06:16:32;;;;;;;9.90;5.70;;;19.00;58.90;;;;;;5014633;28;20026;-68
2022/08/07 06:19:04;;;;;;;8.88;5.35;;;19.10;58.80;;;;;;5016745;28;20029;-68
2022/08/07 06:21:30;;;;;;;10.83;5.33;;;19.20;58.40;;;;;;5013336;28;20037;-68
2022/08/07 06:23:57;;;;;;;10.55;6.22;;;19.40;58.20;;;;;;5015598;28;20033;-68
2022/08/07 06:26:25;;;;;;;8.82;5.40;;;19.60;57.80;;;;;;5017896;28;20032;-68
2022/08/07 06:28:52;;;;;;;9.65;5.60;;;19.90;57.60;;;;;;4996152;28;20049;-68
2022/08/07 06:31:19;;;;;;;9.57;5.78;;;20.10;57.30;;;;;;4999139;28;20366;-68
2022/08/07 06:33:46;;;;;;;9.18;5.30;;;20.30;56.90;;;;;;5011899;28;20056;-68
2022/08/07 06:36:12;;;;;;;9.35;4.88;;;20.60;56.60;;;;;;5036155;28;20097;-68
2022/08/07 06:38:43;;;;;;;9.80;5.60;;;20.80;56.00;;;;;;5036354;28;20480;-68
2022/08/07 06:41:16;;;;;;;8.95;4.95;;;21.00;55.60;;;;;;5028522;28;20045;-68
2022/08/07 06:43:44;;;;;;;8.60;4.72;;;21.20;55.30;;;;;;5026735;28;20040;-69
2022/08/07 06:46:14;;;;;;;9.73;5.13;;;21.40;54.90;;;;;;5034873;28;20569;-69
2022/08/07 06:48:41;;;;;;;9.38;5.00;;;21.50;54.50;;;;;;5027927;28;20083;-69
2022/08/07 06:51:11;;;;;;;8.95;4.95;;;21.70;54.10;;;;;;5000394;28;20459;-69
2022/08/07 06:53:40;;;;;;;7.78;4.53;;;21.90;53.80;;;;;;5009641;28;20021;-68
2022/08/07 06:56:09;;;;;;;8.10;4.50;;;22.20;53.40;;;;;;5028765;28;20032;-68
2022/08/07 06:58:37;;;;;;;9.68;5.00;;;22.30;53.00;;;;;;5016424;28;20359;-69
2022/08/07 07:01:10;;;;;;;8.48;4.60;;;22.50;52.40;;;;;;5002834;28;20455;-68
2022/08/07 07:03:39;;;;;;;7.85;4.80;;;22.70;52.10;;;;;;5035820;28;20087;-68
2022/08/07 07:06:07;;;;;;;7.80;4.40;;;22.80;51.90;;;;;;5035114;28;20108;-68
2022/08/07 07:08:34;;;;;;;8.77;4.90;;;23.00;51.70;;;;;;5002342;28;20092;-68
2022/08/07 07:11:02;;;;;;;8.30;4.30;;;23.10;51.40;;;;;;5011562;28;20064;-68
2022/08/07 07:13:36;;;;;;;10.50;4.75;;;23.20;51.10;;;;;;5004917;28;20035;-69
2022/08/07 07:16:06;;;;;;;9.25;4.43;;;23.20;50.70;;;;;;5023923;28;20053;-68
2022/08/07 07:18:47;;;;;;;8.55;4.50;;;23.40;50.60;;;;;;5009577;28;20058;-67
2022/08/07 07:21:20;;;;;;;9.53;4.50;;;23.40;51.10;;;;;;5009814;28;20045;-67
2022/08/07 07:23:47;;;;;;;8.93;4.43;;;23.50;50.20;;;;;;5013683;28;20281;-67
2022/08/07 07:26:17;;;;;;;7.75;4.32;;;23.70;49.90;;;;;;5015569;28;20101;-67
2022/08/07 07:28:46;;;;;;;8.27;3.93;;;23.70;49.50;;;;;;5015721;28;20029;-67
2022/08/07 07:31:20;;;;;;;7.53;3.55;;;23.80;49.60;;;;;;5019860;28;20041;-66
2022/08/07 07:33:48;;;;;;;7.32;3.80;;;23.90;49.30;;;;;;5024281;28;20092;-65
2022/08/07 07:36:13;;;;;;;7.15;3.65;;;24.00;48.90;;;;;;5036296;28;20080;-65
2022/08/07 07:38:41;;;;;;;5.80;2.72;;;24.20;48.60;;;;;;5018712;28;20481;-65
2022/08/07 07:41:10;;;;;;;6.97;3.13;;;24.30;48.00;;;;;;5028083;28;20164;-66
2022/08/07 07:43:40;;;;;;;6.70;2.78;;;24.40;47.50;;;;;;5018520;28;20160;-66
2022/08/07 07:46:08;;;;;;;5.95;2.65;;;24.50;47.20;;;;;;5007608;28;20452;-65
2022/08/07 07:48:35;;;;;;;5.95;2.88;;;24.60;46.80;;;;;;5021718;28;20021;-65
2022/08/07 07:51:03;;;;;;;5.70;2.75;;;24.70;47.30;;;;;;5021134;28;20315;-66
2022/08/07 07:53:30;;;;;;;6.47;3.03;;;24.70;46.40;;;;;;5027295;28;20636;-66
2022/08/07 07:55:58;;;;;;;6.22;2.80;;;24.90;46.20;;;;;;5034979;28;20025;-66
2022/08/07 07:58:34;;;;;;;7.38;2.75;;;25.00;45.90;;;;;;5015013;28;20025;-65
2022/08/07 08:01:01;;;;;;;7.22;3.28;;;25.00;45.70;;;;;;4997068;28;20042;-66
2022/08/07 08:03:29;;;;;;;5.82;2.60;;;25.10;45.60;;;;;;5014296;28;20112;-66
2022/08/07 08:05:55;;;;;;;6.55;2.65;;;25.20;45.30;;;;;;5005518;28;20026;-66
2022/08/07 08:08:23;;;;;;;5.75;2.70;;;25.30;45.20;;;;;;5027606;28;20026;-66
2022/08/07 08:10:48;;;;;;;5.22;2.20;;;25.30;45.10;;;;;;5009202;28;20026;-66
2022/08/07 08:13:15;;;;;;;5.72;2.60;;;25.40;45.20;;;;;;5022724;28;20722;-66
2022/08/07 08:15:42;;;;;;;6.03;2.30;;;25.50;45.00;;;;;;5008554;28;20046;-66
2022/08/07 08:18:10;;;;;;;4.45;2.10;;;25.60;44.80;;;;;;5011130;28;20042;-66
2022/08/07 08:20:39;;;;;;;6.63;2.72;;;25.70;44.70;;;;;;5015095;28;20368;-66
2022/08/07 08:28:53;;;;;;;5.90;2.70;;;25.90;44.10;;;;;;4994045;28;20034;-66
2022/08/07 08:31:32;;;;;;;4.72;2.10;;;26.00;43.90;;;;;;4998909;28;20034;-66
2022/08/07 08:34:00;;;;;;;6.05;2.65;;;26.10;43.50;;;;;;4986765;28;20042;-66
2022/08/07 08:36:30;;;;;;;5.70;2.75;;;26.20;43.40;;;;;;4951931;28;20042;-66
2022/08/07 08:38:59;;;;;;;5.60;2.60;;;26.20;43.30;;;;;;4983573;28;20125;-66
2022/08/07 08:41:36;;;;;;;5.60;2.47;;;26.20;43.20;;;;;;4994993;28;20088;-66
2022/08/07 08:44:35;;;;;;;6.93;2.40;;;26.30;43.00;;;;;;4997184;28;20057;-66
2022/08/07 08:47:20;;;;;;;6.53;2.30;;;26.30;43.00;;;;;;4990563;28;20534;-66
2022/08/07 08:49:55;;;;;;;6.63;2.15;;;26.40;42.80;;;;;;4992342;28;20456;-66
2022/08/07 08:52:27;;;;;;;5.35;2.10;;;26.50;42.70;;;;;;4990256;28;20417;-66
2022/08/07 08:54:58;;;;;;;;;;;26.60;42.30;;;;;;4993562;28;20050;-66
2022/08/07 08:57:51;;;;;;;4.97;1.90;;;26.70;42.50;;;;;;4988248;28;19921;-68
2022/08/07 09:00:17;;;;;;;4.88;1.83;;;26.70;42.20;;;;;;4989895;28;20030;-69
2022/08/07 09:02:55;;;;;;;5.75;2.10;;;26.70;42.10;;;;;;5009699;28;20129;-68
2022/08/07 09:05:33;;;;;;;4.97;1.88;;;26.80;41.50;;;;;;5005041;28;20022;-69
2022/08/07 09:08:17;;;;;;;5.00;1.98;;;26.80;41.20;;;;;;5011951;28;20033;-69
2022/08/07 09:11:12;;;;;;;6.32;1.88;;;26.90;41.00;;;;;;5013054;28;20042;-68
2022/08/07 09:14:11;;;;;;;5.93;2.10;;;26.90;40.50;;;;;;5004935;28;20039;-69
2022/08/07 09:16:46;;;;;;;4.90;2.17;;;26.90;40.30;;;;;;5019324;28;20040;-67
2022/08/07 09:19:39;;;;;;;5.63;2.25;;;26.90;40.00;;;;;;5034564;28;20041;-67
2022/08/07 09:22:34;;;;;;;6.13;2.15;;;26.90;39.90;;;;;;5011854;28;20355;-69
2022/08/07 09:25:15;;;;;;;6.63;2.08;;;26.80;39.80;;;;;;5009671;28;20053;-69
2022/08/07 09:28:03;;;;;;;5.60;1.90;;;26.80;39.90;;;;;;5016494;28;20033;-69
2022/08/07 09:31:00;;;;;;;4.05;1.70;;;27.00;39.70;;;;;;5013111;28;20026;-69
2022/08/07 09:33:57;;;;;;;5.10;1.77;;;27.30;39.60;;;;;;5011847;28;20034;-69
2022/08/07 09:36:38;;;;;;;5.40;1.85;;;27.40;39.10;;;;;;5013680;28;20034;-69
2022/08/07 09:39:21;;;;;;;5.72;1.67;;;27.60;38.90;;;;;;5012743;28;20026;-69
2022/08/07 09:42:05;;;;;;;4.72;1.80;;;27.80;38.70;;;;;;5000248;28;20026;-69
2022/08/07 09:45:01;;;;;;;3.38;1.75;;;27.90;38.40;;;;;;5017591;28;20025;-69
2022/08/07 09:47:56;;;;;;;2.97;1.60;;;27.60;38.10;;;;;;5007865;28;20027;-69
2022/08/07 09:50:50;;;;;;;3.38;1.67;;;27.60;38.40;;;;;;5014192;28;20088;-69
2022/08/07 09:53:21;;;;;;;3.83;1.50;;;27.70;37.90;;;;;;5010090;28;20076;-69
2022/08/07 09:55:58;;;;;;;3.97;1.58;;;27.80;37.90;;;;;;5012946;28;20087;-69
2022/08/07 09:59:03;;;;;;;4.68;1.60;;;28.00;37.70;;;;;;5010774;28;20029;-69
2022/08/07 10:01:36;;;;;;;3.65;1.50;;;28.10;37.50;;;;;;4993801;28;20049;-68
2022/08/07 10:04:32;;;;;;;3.70;1.60;;;28.20;37.50;;;;;;5013173;28;20041;-69
2022/08/07 10:07:23;;;;;;;4.55;2.13;;;28.40;37.20;;;;;;5012400;28;20491;-69
2022/08/07 10:10:20;;;;;;;4.78;1.88;;;28.40;36.80;;;;;;4993111;28;20473;-69
2022/08/07 10:13:10;;;;;;;4.55;1.92;;;28.50;36.90;;;;;;5016337;28;20054;-68
2022/08/07 10:15:56;;;;;;;3.35;1.55;;;28.50;37.00;;;;;;5014602;28;20025;-69
2022/08/07 10:18:59;;;;;;;4.30;1.60;;;28.60;36.90;;;;;;5015683;28;20034;-69
2022/08/07 10:21:47;;;;;;;2.97;1.42;;;28.70;36.80;;;;;;4999527;28;20372;-69
2022/08/07 10:24:30;;;;;;;3.83;1.50;;;28.80;36.90;;;;;;5010773;28;20116;-72
2022/08/07 10:27:16;;;;;;;4.65;1.90;;;28.90;36.50;;;;;;5014475;28;20034;-69
2022/08/07 10:30:03;;;;;;;3.35;1.45;;;28.80;36.20;;;;;;5005235;28;20077;-69
2022/08/07 10:32:56;;;;;;;5.57;1.63;;;28.80;36.10;;;;;;5006225;28;20034;-69
2022/08/07 10:36:13;;;;;;;5.53;1.95;;;28.90;36.20;;;;;;5032075;28;20040;-69
2022/08/07 10:39:09;;;;;;;3.63;1.55;;;28.90;35.70;;;;;;5018530;28;20037;-69
2022/08/07 10:41:40;;;;;;;4.22;1.60;;;28.90;35.80;;;;;;5017888;28;20450;-69
2022/08/07 10:44:42;;;;;;;2.97;1.58;;;29.00;35.80;;;;;;5015978;28;20032;-69
2022/08/07 10:47:41;;;;;;;5.32;1.73;;;29.10;35.60;;;;;;4995913;28;20038;-70
2022/08/07 10:50:19;;;;;;;4.63;2.00;;;29.10;35.40;;;;;;5002012;28;20068;-69
2022/08/07 10:53:06;;;;;;;3.40;1.63;;;29.10;35.50;;;;;;5000289;28;20117;-69
2022/08/07 10:55:40;;;;;;;3.92;1.65;;;29.10;35.20;;;;;;5003694;28;20068;-69
2022/08/07 10:58:46;;;;;;;4.30;1.70;;;29.10;35.40;;;;;;5009889;28;20125;-69
2022/08/07 11:01:29;;;;;;;4.85;1.70;;;29.20;35.30;;;;;;4986117;28;20038;-70
2022/08/07 11:04:19;;;;;;;3.78;1.83;;;29.20;35.20;;;;;;4997825;28;20060;-70
2022/08/07 11:06:49;;;;;;;4.85;2.15;;;29.30;34.90;;;;;;5008117;28;20110;-69
2022/08/07 11:09:23;;;;;;;4.22;1.80;;;29.30;34.90;;;;;;4994396;28;20062;-69
2022/08/07 11:12:05;;;;;;;3.65;1.73;;;29.40;35.00;;;;;;4994092;28;20060;-69
2022/08/07 11:14:45;;;;;;;4.43;1.70;;;29.50;35.20;;;;;;5002700;28;20030;-69
2022/08/07 11:17:29;;;;;;;3.28;1.67;;;29.60;34.90;;;;;;4990699;28;20050;-69
2022/08/07 11:20:00;;;;;;;2.78;1.35;;;29.60;34.90;;;;;;4988631;28;20038;-69
2022/08/07 11:22:47;;;;;;;4.15;1.65;;;29.60;34.70;;;;;;5018216;28;20049;-69
2022/08/07 11:25:26;;;;;;;3.88;1.63;;;29.60;34.60;;;;;;5019298;28;20109;-69
2022/08/07 11:28:33;;;;;;;3.58;1.80;;;29.70;34.70;;;;;;5015524;28;20124;-69
2022/08/07 11:31:20;;;;;;;4.43;1.80;;;29.70;34.20;;;;;;5009347;28;20033;-69
2022/08/07 11:33:59;;;;;;;4.40;2.13;;;29.60;34.30;;;;;;5014265;28;20088;-69
2022/08/07 11:36:46;;;;;;;3.85;2.00;;;29.30;34.10;;;;;;4994791;28;20025;-70
2022/08/07 11:39:24;;;;;;;5.65;2.20;;;28.90;34.60;;;;;;5007607;28;20128;-70
2022/08/07 11:42:24;;;;;;;4.30;2.00;;;28.50;34.90;;;;;;5015383;28;20119;-70
2022/08/07 11:45:14;;;;;;;5.22;2.30;;;28.00;35.40;;;;;;5019771;28;20029;-71
2022/08/07 11:48:12;;;;;;;5.82;1.95;;;27.80;36.40;;;;;;5022437;28;20076;-70
2022/08/07 11:51:12;;;;;;;4.45;2.08;;;27.40;36.10;;;;;;5025253;28;20128;-70
2022/08/07 11:54:09;;;;;;;22.30;3.53;;;27.30;36.30;;;;;;5019629;28;20041;-70
2022/08/07 11:56:59;;;;;;;8.80;2.33;;;27.20;36.50;;;;;;4994063;28;20458;-70
2022/08/07 11:59:49;;;;;;;5.57;2.22;;;27.40;36.30;;;;;;5008232;28;20489;-70
2022/08/07 12:02:48;;;;;;;4.75;2.38;;;27.70;36.20;;;;;;5014876;28;20120;-70
2022/08/07 12:05:52;;;;;;;4.78;2.17;;;27.90;35.70;;;;;;5026722;28;20383;-70
2022/08/07 12:08:24;;;;;;;4.65;2.10;;;28.00;35.20;;;;;;5016552;28;20416;-70
2022/08/07 12:10:55;;;;;;;5.07;2.20;;;28.10;35.20;;;;;;5034356;28;20029;-70
2022/08/07 12:13:42;;;;;;;3.78;2.00;;;28.20;35.10;;;;;;5022150;28;20443;-70
2022/08/07 12:16:16;;;;;;;5.43;2.40;;;28.30;35.20;;;;;;4997484;28;20053;-70
2022/08/07 12:19:20;;;;;;;5.65;2.60;;;28.10;35.10;;;;;;5013808;28;20036;-70
2022/08/07 12:22:17;;;;;;;4.85;2.28;;;27.80;35.40;;;;;;5028987;28;20034;-70
2022/08/07 12:27:54;;;;;;;5.45;2.17;;;27.30;35.90;;;;;;4975928;28;20042;-71
2022/08/07 12:30:30;;;;;;;4.32;2.00;;;27.30;36.10;;;;;;4985096;28;20100;-71
2022/08/07 12:33:19;;;;;;;5.28;2.33;;;27.20;36.50;;;;;;5003307;28;20115;-72
2022/08/07 12:35:49;;;;;;;5.05;2.50;;;27.30;36.90;;;;;;4991641;28;20069;-71
2022/08/07 12:38:20;;;;;;;6.03;2.13;;;27.30;36.80;;;;;;4982739;28;20095;-71
2022/08/07 12:40:48;;;;;;;4.65;2.10;;;27.40;36.60;;;;;;5002890;28;20038;-71
2022/08/07 12:43:18;;;;;;;4.07;1.98;;;27.40;36.30;;;;;;4997836;28;20026;-71
2022/08/07 12:46:08;;;;;;;4.97;2.17;;;27.40;36.30;;;;;;4985776;28;20034;-71
2022/08/07 12:49:14;;;;;;;4.60;2.10;;;27.30;36.20;;;;;;4992699;28;20027;-71
2022/08/07 12:51:49;;;;;;;5.47;2.30;;;27.30;36.30;;;;;;4974439;28;20038;-71
2022/08/07 12:54:26;;;;;;;5.50;2.17;;;27.30;36.20;;;;;;4987152;28;20105;-71
2022/08/07 12:56:56;;;;;;;4.90;2.28;;;27.20;36.20;;;;;;4988208;28;20360;-70
2022/08/07 12:59:30;;;;;;;7.07;2.35;;;27.10;36.60;;;;;;4992751;28;20045;-71
2022/08/07 13:02:17;;;;;;;4.38;1.98;;;27.00;36.70;;;;;;5015908;28;20143;-71
2022/08/07 13:05:03;;;;;;;5.70;2.25;;;26.90;36.80;;;;;;5014248;28;20350;-71
2022/08/07 13:07:51;;;;;;;4.70;2.00;;;26.90;37.00;;;;;;4986990;28;20421;-71
2022/08/07 13:10:35;;;;;;;4.75;2.50;;;26.80;37.00;;;;;;5012657;28;20038;-71
2022/08/07 13:13:16;;;;;;;6.05;2.33;;;26.80;36.80;;;;;;5011339;28;20054;-71
2022/08/07 13:16:13;;;;;;;6.40;2.10;;;26.80;37.00;;;;;;4998955;28;20031;-71
2022/08/07 13:19:05;;;;;;;4.45;1.90;;;26.90;37.00;;;;;;5024355;28;20034;-70
2022/08/07 13:21:41;;;;;;;3.63;1.70;;;26.90;36.90;;;;;;5010315;28;20120;-71
2022/08/07 13:24:18;;;;;;;4.43;1.90;;;26.90;37.00;;;;;;5004422;28;20033;-71
2022/08/07 13:27:03;;;;;;;5.32;2.15;;;26.90;36.90;;;;;;5013389;28;20032;-72
2022/08/07 13:29:37;;;;;;;5.00;2.25;;;27.00;36.90;;;;;;5001507;28;20641;-71
2022/08/07 13:32:15;;;;;;;6.47;2.65;;;27.00;37.10;;;;;;5004924;28;20041;-71
2022/08/07 13:35:06;;;;;;;4.95;2.40;;;27.00;37.00;;;;;;5012738;28;20366;-71